Time;durP1;ratioP1;P1;durP2;ratioP2;P2;SDS_P1;SDS_P2;PMS_P1;PMS_P2;Temp;Humidity;BMP_temperature;BMP_pressure;BME280_temperature;BME280_humidity;BME280_pressure;Samples;Min_cycle;Max_cycle;Signal;HPM_P1;HPM_P2
2021/12/10 00:02:49;;;;;;;1999.90;999.90;;;;;;;2.35;74.74;99927.84;15573839;28;20295;-65
2021/12/10 00:10:30;;;;;;;1999.90;999.90;;;;;;;1.98;75.49;99910.19;15599563;28;20104;-65
2021/12/10 00:18:07;;;;;;;1999.90;999.90;;;;;;;1.69;76.55;99915.78;15600653;28;20034;-64
2021/12/10 00:25:46;;;;;;;1999.90;999.90;;;;;;;2.16;75.48;99927.81;15562015;28;20469;-65
2021/12/10 00:33:24;;;;;;;1999.90;999.90;;;;;;;2.34;74.39;99911.63;15581623;28;20432;-64
2021/12/10 00:40:58;;;;;;;1999.90;999.90;;;;;;;2.45;74.22;99907.59;15602137;28;20058;-64
2021/12/10 00:49:10;;;;;;;1999.90;999.90;;;;;;;2.39;74.05;99884.81;15647785;28;20049;-64
2021/12/10 00:56:49;;;;;;;1999.90;999.90;;;;;;;2.02;75.10;99878.22;15581946;28;20056;-64
2021/12/10 01:04:26;;;;;;;1999.90;999.90;;;;;;;1.71;76.71;99877.78;15606097;28;20100;-65
2021/12/10 01:12:07;;;;;;;1999.90;999.90;;;;;;;2.07;75.62;99869.03;15623953;28;20083;-65
2021/12/10 01:27:34;;;;;;;1999.90;999.90;;;;;;;2.12;75.65;99840.66;15583201;28;20118;-65
2021/12/10 01:35:12;;;;;;;1999.90;999.90;;;;;;;2.00;75.86;99828.16;15603455;28;20038;-66
2021/12/10 01:42:48;;;;;;;1999.90;999.90;;;;;;;2.17;75.46;99802.84;15578008;28;20046;-66
2021/12/10 01:50:22;;;;;;;1999.90;999.90;;;;;;;2.09;76.09;99795.28;15605859;28;20073;-65
2021/12/10 01:57:56;;;;;;;1999.90;999.90;;;;;;;1.70;76.50;99787.34;15573915;28;20470;-66
2021/12/10 02:05:32;;;;;;;1999.90;999.90;;;;;;;2.09;76.17;99780.72;15651088;28;20438;-65
2021/12/10 02:13:05;;;;;;;1999.90;999.90;;;;;;;2.01;76.32;99774.75;15612933;28;20048;-66
2021/12/10 02:20:50;;;;;;;1999.90;999.90;;;;;;;2.50;74.41;99758.78;15611936;28;20053;-66
2021/12/10 02:28:23;;;;;;;1999.90;999.90;;;;;;;2.53;73.55;99753.53;15594156;28;20116;-67
2021/12/10 02:35:57;;;;;;;1999.90;999.90;;;;;;;2.51;73.79;99730.16;15583772;28;20042;-66
2021/12/10 02:43:32;;;;;;;1999.90;999.90;;;;;;;1.70;77.05;99722.16;15578074;28;20052;-65
2021/12/10 02:51:07;;;;;;;1999.90;999.90;;;;;;;1.83;77.88;99709.56;15587751;28;20054;-66
2021/12/10 02:58:42;;;;;;;1999.90;999.90;;;;;;;1.90;76.52;99689.94;15576470;28;20050;-68
2021/12/10 03:06:18;;;;;;;1999.90;999.90;;;;;;;1.68;77.61;99694.13;15578348;28;20046;-66
2021/12/10 03:13:52;;;;;;;1999.90;999.90;;;;;;;2.05;76.62;99688.84;15591531;28;20081;-66
2021/12/10 03:21:26;;;;;;;1999.90;999.90;;;;;;;1.70;77.12;99680.06;15636627;28;20094;-65
2021/12/10 03:28:58;;;;;;;1999.90;999.90;;;;;;;2.11;76.24;99660.13;15637117;28;20048;-66
2021/12/10 03:36:33;;;;;;;1999.90;999.90;;;;;;;1.77;77.42;99643.91;15643775;28;20046;-67
2021/12/10 03:44:05;;;;;;;1999.90;999.90;;;;;;;1.78;76.99;99640.09;15596764;28;20050;-66
2021/12/10 03:51:39;;;;;;;1999.90;999.90;;;;;;;2.07;76.37;99618.63;15601943;28;20080;-66
2021/12/10 03:59:16;;;;;;;1999.90;999.90;;;;;;;2.27;75.75;99621.00;15633873;28;20108;-66
2021/12/10 04:06:51;;;;;;;1999.90;999.90;;;;;;;2.22;76.12;99632.13;15595227;28;20495;-67
2021/12/10 04:14:24;;;;;;;1999.90;999.90;;;;;;;2.30;75.00;99630.59;15622309;28;20125;-65
2021/12/10 04:22:01;;;;;;;1999.90;999.90;;;;;;;2.39;75.08;99628.75;15582352;28;20053;-65
2021/12/10 04:29:34;;;;;;;1999.90;999.90;;;;;;;1.93;76.78;99624.13;15625644;28;20106;-66
2021/12/10 04:37:11;;;;;;;1999.90;999.90;;;;;;;1.58;77.74;99621.97;15603619;28;20483;-65
2021/12/10 04:45:16;;;;;;;1999.90;999.90;;;;;;;1.98;77.23;99635.03;15578011;28;20045;-66
2021/12/10 04:52:57;;;;;;;1999.90;999.90;;;;;;;1.94;77.77;99612.00;15581253;28;20478;-64
2021/12/10 05:00:36;;;;;;;1999.90;999.90;;;;;;;2.07;77.13;99613.13;15617624;28;20060;-64
2021/12/10 05:08:11;;;;;;;1999.90;999.90;;;;;;;2.07;77.02;99612.31;15631896;28;20064;-65
2021/12/10 05:15:44;;;;;;;1999.90;999.90;;;;;;;1.71;78.41;99611.03;15595706;28;20034;-64
2021/12/10 05:23:25;;;;;;;1999.90;999.90;;;;;;;2.18;77.10;99608.25;15620470;28;20050;-64
2021/12/10 05:31:31;;;;;;;1999.90;999.90;;;;;;;1.93;77.47;99599.34;15590435;28;20124;-63
2021/12/10 05:39:47;;;;;;;1999.90;999.90;;;;;;;2.13;76.78;99591.84;15560902;28;20057;-65
2021/12/10 05:47:40;;;;;;;1999.90;999.90;;;;;;;2.25;76.90;99581.16;15617264;28;20069;-65
2021/12/10 05:55:15;;;;;;;1999.90;999.90;;;;;;;2.05;77.15;99579.59;15601059;28;20049;-65
2021/12/10 06:02:49;;;;;;;1999.90;999.90;;;;;;;2.55;75.77;99571.44;15643350;28;20069;-63
2021/12/10 06:10:23;;;;;;;;;;;;;;;2.36;76.40;99559.72;15635083;28;20555;-64
2021/12/10 06:17:56;;;;;;;1999.90;999.90;;;;;;;2.10;76.50;99559.44;15680045;28;20376;-65
2021/12/10 06:25:31;;;;;;;1999.90;999.90;;;;;;;2.10;76.80;99559.44;15678921;28;20106;-65
2021/12/10 06:33:06;;;;;;;1999.90;999.90;;;;;;;2.26;75.92;99552.50;15677407;28;20055;-67
2021/12/10 06:40:42;;;;;;;1999.90;999.90;;;;;;;2.08;76.83;99545.97;15676956;28;20108;-66
2021/12/10 06:48:16;;;;;;;1999.90;999.90;;;;;;;1.75;78.06;99550.72;15678550;28;20049;-67
2021/12/10 06:55:51;;;;;;;1999.90;999.90;;;;;;;2.18;77.10;99545.75;15690694;28;20083;-67
2021/12/10 07:03:26;;;;;;;1999.90;999.90;;;;;;;2.11;76.64;99533.56;15709157;28;20060;-66
2021/12/10 07:11:02;;;;;;;1999.90;999.90;;;;;;;2.27;76.71;99537.59;15684347;28;20056;-65
2021/12/10 07:18:35;;;;;;;1999.90;999.90;;;;;;;2.15;76.82;99540.06;15628987;28;20560;-67
2021/12/10 07:26:09;;;;;;;1999.90;999.90;;;;;;;2.15;77.03;99529.88;15626680;28;20083;-64
2021/12/10 07:33:42;;;;;;;1999.90;999.90;;;;;;;2.28;76.75;99526.28;15626258;28;20354;-66
2021/12/10 07:41:16;;;;;;;1999.90;999.90;;;;;;;2.40;77.11;99522.19;15627675;28;20137;-65
2021/12/10 07:48:49;;;;;;;1999.90;999.90;;;;;;;2.72;75.21;99521.25;15628650;28;20301;-65
2021/12/10 07:56:24;;;;;;;1999.90;999.90;;;;;;;2.58;75.67;99515.75;15625144;28;20046;-63
2021/12/10 08:03:59;;;;;;;1999.90;999.90;;;;;;;2.74;74.58;99485.94;15622105;28;20049;-62
2021/12/10 08:11:33;;;;;;;1999.90;999.90;;;;;;;2.31;76.80;99475.34;15626290;28;20050;-59
2021/12/10 08:19:07;;;;;;;1999.90;999.90;;;;;;;2.11;78.56;99462.81;15643914;28;20098;-62
2021/12/10 08:26:42;;;;;;;1999.90;999.90;;;;;;;2.25;78.89;99460.03;15639330;28;20053;-62
2021/12/10 08:34:16;;;;;;;1999.90;999.90;;;;;;;2.19;78.58;99451.09;15614019;28;20136;-62
2021/12/10 08:41:51;;;;;;;1999.90;999.90;;;;;;;2.44;79.19;99438.69;15619249;28;20590;-66
2021/12/10 08:49:23;;;;;;;1999.90;999.90;;;;;;;2.61;77.30;99446.31;15626099;28;20445;-66
2021/12/10 08:56:58;;;;;;;1999.90;999.90;;;;;;;2.83;76.20;99442.75;15659702;28;20076;-67
2021/12/10 09:04:33;;;;;;;1999.90;999.90;;;;;;;3.19;75.34;99437.16;15624706;28;20438;-66
2021/12/10 09:12:11;;;;;;;1999.90;999.90;;;;;;;2.60;77.01;99445.50;15613688;28;20045;-66
2021/12/10 09:19:44;;;;;;;1999.90;999.90;;;;;;;2.94;75.73;99435.03;15618364;28;20517;-66
2021/12/10 09:27:18;;;;;;;1999.90;999.90;;;;;;;2.66;77.35;99439.84;15615431;28;20049;-67
2021/12/10 09:34:51;;;;;;;1999.90;999.90;;;;;;;2.93;76.91;99436.19;15622645;28;20041;-66
2021/12/10 09:42:26;;;;;;;1999.90;999.90;;;;;;;3.10;75.61;99437.09;15616467;28;20128;-67
2021/12/10 09:49:59;;;;;;;1999.90;999.90;;;;;;;2.65;77.10;99441.78;15596420;28;20041;-67
2021/12/10 09:57:38;;;;;;;1999.90;999.90;;;;;;;2.45;78.90;99425.75;15615125;28;20053;-64
2021/12/10 10:05:11;;;;;;;1999.90;999.90;;;;;;;3.04;77.03;99427.34;15618167;28;20442;-65
2021/12/10 10:12:49;;;;;;;1999.90;999.90;;;;;;;2.82;77.41;99428.16;15617596;28;20072;-67
2021/12/10 10:20:23;;;;;;;1999.90;999.90;;;;;;;3.29;75.51;99425.84;15575579;28;20056;-67
2021/12/10 10:27:57;;;;;;;1999.90;999.90;;;;;;;3.05;76.30;99417.13;15636723;28;20450;-66
2021/12/10 10:35:38;;;;;;;1999.90;999.90;;;;;;;3.31;75.98;99412.56;15679471;28;20504;-66
2021/12/10 10:43:12;;;;;;;1999.90;999.90;;;;;;;3.28;76.00;99410.44;15657883;28;20399;-67
2021/12/10 10:50:52;;;;;;;1999.90;999.90;;;;;;;2.95;77.71;99396.16;15652182;28;20111;-67
2021/12/10 10:58:30;;;;;;;1999.90;999.90;;;;;;;3.22;76.67;99394.34;15624328;28;20057;-66
2021/12/10 11:06:05;;;;;;;1999.90;999.90;;;;;;;3.01;77.62;99394.06;15627432;28;20045;-67
2021/12/10 11:13:39;;;;;;;1999.90;999.90;;;;;;;3.65;75.89;99384.34;15640775;28;20051;-66
2021/12/10 11:21:12;;;;;;;1999.90;999.90;;;;;;;3.59;74.87;99388.38;15623603;28;20073;-66
2021/12/10 11:28:47;;;;;;;1999.90;999.90;;;;;;;3.34;76.24;99384.38;15611127;28;20045;-68
2021/12/10 11:36:23;;;;;;;1999.90;999.90;;;;;;;3.69;75.14;99368.75;15614616;28;20045;-67
2021/12/10 11:44:18;;;;;;;1999.90;999.90;;;;;;;3.74;73.85;99363.09;15621130;28;20050;-67
2021/12/10 11:51:57;;;;;;;1999.90;999.90;;;;;;;3.47;75.98;99372.44;15623480;28;20041;-67
2021/12/10 11:59:35;;;;;;;1999.90;999.90;;;;;;;3.64;74.33;99359.81;15618790;28;20057;-67
2021/12/10 12:07:38;;;;;;;1999.90;999.90;;;;;;;3.15;76.90;99351.53;15622590;28;20045;-68
2021/12/10 12:15:24;;;;;;;1999.90;999.90;;;;;;;3.21;77.14;99352.19;15616914;28;20490;-66
2021/12/10 12:30:52;;;;;;;;;;;;;;;3.30;78.20;99346.72;15613449;28;20056;-67
2021/12/10 12:38:29;;;;;;;1999.90;999.90;;;;;;;2.89;78.96;99343.09;15620358;28;19925;-67
2021/12/10 12:46:24;;;;;;;1999.90;999.90;;;;;;;3.15;78.04;99343.25;15617966;28;20049;-67
2021/12/10 12:53:59;;;;;;;1999.90;999.90;;;;;;;3.32;77.27;99322.41;15617885;28;20216;-68
2021/12/10 13:01:36;;;;;;;1999.90;999.90;;;;;;;3.63;75.67;99322.31;15618830;28;20128;-68
2021/12/10 13:09:13;;;;;;;1999.90;999.90;;;;;;;3.83;75.58;99330.00;15609720;28;20045;-68
2021/12/10 13:16:50;;;;;;;1999.90;999.90;;;;;;;3.22;77.02;99337.28;15614058;28;20057;-67
2021/12/10 13:24:24;;;;;;;1999.90;999.90;;;;;;;3.45;76.22;99336.09;15609161;28;20119;-69
2021/12/10 13:32:04;;;;;;;1999.90;999.90;;;;;;;3.15;77.37;99350.72;15572548;28;20088;-67
2021/12/10 13:39:36;;;;;;;1999.90;999.90;;;;;;;3.11;77.09;99371.75;15619216;28;20057;-69
2021/12/10 13:47:23;;;;;;;1999.90;999.90;;;;;;;3.20;78.08;99367.09;15623906;28;20041;-68
2021/12/10 13:55:05;;;;;;;1999.90;999.90;;;;;;;3.44;76.62;99377.78;15615497;28;20538;-69
2021/12/10 14:02:41;;;;;;;1999.90;999.90;;;;;;;3.26;77.30;99374.13;15615020;28;20304;-68
2021/12/10 14:10:24;;;;;;;1999.90;999.90;;;;;;;3.69;75.44;99387.28;15616260;28;20049;-67
2021/12/10 14:18:01;;;;;;;1999.90;999.90;;;;;;;3.61;75.82;99390.81;15619212;28;20450;-67
2021/12/10 14:25:41;;;;;;;1999.90;999.90;;;;;;;3.41;76.68;99401.25;15613137;28;20045;-67
2021/12/10 14:33:22;;;;;;;1999.90;999.90;;;;;;;3.52;76.33;99409.25;15618733;28;20057;-67
2021/12/10 14:41:00;;;;;;;1999.90;999.90;;;;;;;3.63;75.77;99410.59;15611546;28;20088;-66
2021/12/10 14:48:36;;;;;;;1999.90;999.90;;;;;;;3.56;76.56;99410.25;15615804;28;20042;-66
2021/12/10 14:56:19;;;;;;;1999.90;999.90;;;;;;;3.27;77.75;99411.59;15605269;28;20115;-66
2021/12/10 15:03:54;;;;;;;1999.90;999.90;;;;;;;3.51;76.92;99426.94;15611757;28;20049;-65
2021/12/10 15:11:41;;;;;;;1999.90;999.90;;;;;;;3.42;77.07;99422.19;15615031;28;20077;-66
2021/12/10 15:19:25;;;;;;;1999.90;999.90;;;;;;;3.27;77.96;99421.78;15625188;28;20050;-66
2021/12/10 15:27:05;;;;;;;1999.90;999.90;;;;;;;2.94;79.29;99424.03;15621235;28;20128;-66
2021/12/10 15:34:45;;;;;;;1999.90;999.90;;;;;;;3.01;79.62;99427.94;15652850;28;20055;-69
2021/12/10 15:42:21;;;;;;;1999.90;999.90;;;;;;;2.88;80.62;99434.34;15679493;28;20414;-69
2021/12/10 15:50:02;;;;;;;1999.90;999.90;;;;;;;2.71;80.92;99443.31;15625304;28;20084;-70
2021/12/10 15:57:42;;;;;;;1999.90;999.90;;;;;;;2.88;80.89;99448.13;15640289;28;20053;-69
2021/12/10 16:05:23;;;;;;;1999.90;999.90;;;;;;;2.91;80.18;99447.47;15640611;28;20111;-68
2021/12/10 16:13:10;;;;;;;1999.90;999.90;;;;;;;3.22;79.43;99452.25;15626396;28;20115;-66
2021/12/10 16:21:10;;;;;;;1999.90;999.90;;;;;;;3.24;78.81;99466.53;15623578;28;20502;-70
2021/12/10 16:28:49;;;;;;;1999.90;999.90;;;;;;;2.96;79.85;99472.19;15639103;28;20457;-65
2021/12/10 16:36:24;;;;;;;1999.90;999.90;;;;;;;3.22;79.31;99479.81;15620933;28;20038;-66
2021/12/10 16:44:00;;;;;;;1999.90;999.90;;;;;;;3.16;78.60;99490.97;15624145;28;20063;-66
2021/12/10 16:51:38;;;;;;;1999.90;999.90;;;;;;;3.23;78.61;99497.97;15623515;28;20058;-66
2021/12/10 16:59:12;;;;;;;1999.90;999.90;;;;;;;3.09;78.88;99492.53;15620245;28;20049;-64
2021/12/10 17:06:49;;;;;;;1999.90;999.90;;;;;;;3.24;78.79;99500.44;15620675;28;20049;-64
2021/12/10 17:14:25;;;;;;;1999.90;999.90;;;;;;;2.88;80.32;99509.56;15619293;28;20099;-68
2021/12/10 17:22:03;;;;;;;1999.90;999.90;;;;;;;2.82;80.49;99521.84;15612731;28;20049;-64
2021/12/10 17:29:37;;;;;;;1999.90;999.90;;;;;;;2.80;80.55;99520.50;15611713;28;20220;-65
2021/12/10 17:37:15;;;;;;;1999.90;999.90;;;;;;;2.99;79.75;99531.34;15617139;28;20080;-65
2021/12/10 17:44:52;;;;;;;1999.90;999.90;;;;;;;3.19;79.64;99547.41;15613803;28;20077;-66
2021/12/10 17:52:30;;;;;;;1999.90;999.90;;;;;;;3.27;79.48;99549.44;15620233;28;20399;-64
2021/12/10 18:00:10;;;;;;;1999.90;999.90;;;;;;;3.31;79.84;99564.19;15616123;28;20403;-63
2021/12/10 18:07:44;;;;;;;1999.90;999.90;;;;;;;3.54;78.39;99573.28;15612394;28;20042;-66
2021/12/10 18:15:23;;;;;;;1999.90;999.90;;;;;;;3.55;77.84;99574.94;15567451;28;20053;-65
2021/12/10 18:23:08;;;;;;;1999.90;999.90;;;;;;;3.55;77.85;99568.63;15568908;28;20037;-65
2021/12/10 18:30:45;;;;;;;1999.90;999.90;;;;;;;3.20;78.99;99565.56;15604955;28;20053;-66
2021/12/10 18:38:29;;;;;;;1999.90;999.90;;;;;;;3.42;78.96;99578.56;15573476;28;20139;-65
2021/12/10 18:46:11;;;;;;;1999.90;999.90;;;;;;;3.46;78.70;99583.16;15608618;28;20049;-66
2021/12/10 18:53:57;;;;;;;1999.90;999.90;;;;;;;3.19;80.04;99580.50;15611064;28;20507;-66
2021/12/10 19:01:34;;;;;;;1999.90;999.90;;;;;;;3.24;79.34;99598.88;15586263;28;20046;-65
2021/12/10 19:09:15;;;;;;;1999.90;999.90;;;;;;;3.00;79.85;99610.97;15615499;28;20050;-58
2021/12/10 19:16:51;;;;;;;1999.90;999.90;;;;;;;2.98;80.89;99627.00;15580712;28;20107;-66
2021/12/10 19:24:28;;;;;;;1999.90;999.90;;;;;;;3.04;80.01;99628.53;15644546;28;20415;-66
2021/12/10 19:32:13;;;;;;;1999.90;999.90;;;;;;;2.91;80.65;99626.59;15645811;28;20129;-70
2021/12/10 19:39:52;;;;;;;1999.90;999.90;;;;;;;3.08;80.01;99634.22;15610029;28;20049;-68
2021/12/10 19:47:29;;;;;;;1999.90;999.90;;;;;;;2.59;81.84;99639.38;15598811;28;20049;-67
2021/12/10 19:55:09;;;;;;;1999.90;999.90;;;;;;;2.87;80.37;99647.63;15567963;28;20061;-69
2021/12/10 20:02:48;;;;;;;1999.90;999.90;;;;;;;2.94;80.09;99655.50;15596289;28;20045;-66
2021/12/10 20:10:26;;;;;;;1999.90;999.90;;;;;;;2.95;80.53;99668.94;15605028;28;20563;-68
2021/12/10 20:18:02;;;;;;;1999.90;999.90;;;;;;;2.77;81.01;99667.94;15605000;28;20073;-69
2021/12/10 20:25:40;;;;;;;1999.90;999.90;;;;;;;3.08;79.94;99676.38;15620025;28;20056;-65
2021/12/10 20:33:18;;;;;;;1999.90;999.90;;;;;;;2.84;80.58;99695.91;15598736;28;20137;-67
2021/12/10 20:40:55;;;;;;;1999.90;999.90;;;;;;;2.75;81.10;99710.69;15586169;28;20084;-67
2021/12/10 20:48:33;;;;;;;1999.90;999.90;;;;;;;2.46;82.23;99721.97;15594153;28;20222;-66
2021/12/10 20:56:10;;;;;;;1999.90;999.90;;;;;;;2.63;81.79;99733.22;15593632;28;20402;-65
2021/12/10 21:03:50;;;;;;;1999.90;999.90;;;;;;;2.79;81.41;99736.50;15575643;28;20057;-65
2021/12/10 21:11:41;;;;;;;1999.90;999.90;;;;;;;2.67;81.83;99738.94;15564735;28;20048;-69
2021/12/10 21:19:18;;;;;;;1999.90;999.90;;;;;;;2.67;81.67;99761.78;15599767;28;20093;-65
2021/12/10 21:26:59;;;;;;;1999.90;999.90;;;;;;;2.78;80.53;99778.94;15586226;28;20088;-67
2021/12/10 21:34:37;;;;;;;1999.90;999.90;;;;;;;2.85;80.40;99771.13;15592524;28;20065;-67
2021/12/10 21:42:16;;;;;;;1999.90;999.90;;;;;;;2.78;79.72;99779.75;15600250;28;20053;-67
2021/12/10 21:49:59;;;;;;;1999.90;999.90;;;;;;;2.62;80.23;99791.38;15615660;28;20111;-69
2021/12/10 21:57:42;;;;;;;1999.90;999.90;;;;;;;2.63;80.61;99799.34;15637617;28;20061;-67
2021/12/10 22:05:24;;;;;;;1999.90;999.90;;;;;;;2.53;80.63;99805.03;15624309;28;20562;-65
2021/12/10 22:13:09;;;;;;;1999.90;999.90;;;;;;;2.44;81.24;99821.41;15620404;28;20049;-67
2021/12/10 22:20:51;;;;;;;1999.90;999.90;;;;;;;2.92;79.19;99829.41;15584789;28;20052;-67
2021/12/10 22:28:39;;;;;;;1999.90;999.90;;;;;;;2.72;80.14;99835.28;15636773;28;20056;-67
2021/12/10 22:36:25;;;;;;;1999.90;999.90;;;;;;;2.69;79.31;99842.19;15604675;28;20119;-68
2021/12/10 22:44:13;;;;;;;1999.90;999.90;;;;;;;2.62;79.33;99863.81;15592822;28;20045;-68
2021/12/10 22:51:54;;;;;;;1999.90;999.90;;;;;;;2.57;79.31;99866.63;15595936;28;20053;-69
2021/12/10 22:59:37;;;;;;;1999.90;999.90;;;;;;;2.31;80.46;99882.75;15596265;28;20053;-68
2021/12/10 23:07:27;;;;;;;1999.90;999.90;;;;;;;2.45;80.21;99880.88;15575064;28;20068;-67
2021/12/10 23:15:09;;;;;;;1999.90;999.90;;;;;;;2.43;80.13;99902.38;15574912;28;20507;-67
2021/12/10 23:22:41;;;;;;;1999.90;999.90;;;;;;;2.33;80.52;99916.31;15613065;28;20064;-66
2021/12/10 23:30:24;;;;;;;1999.90;999.90;;;;;;;2.31;80.49;99924.06;15655546;28;20041;-68
2021/12/10 23:38:05;;;;;;;1999.90;999.90;;;;;;;2.47;80.81;99941.97;15588086;28;20446;-69
2021/12/10 23:45:47;;;;;;;1999.90;999.90;;;;;;;2.76;79.94;99952.00;15586913;28;20511;-68
2021/12/10 23:53:24;;;;;;;1999.90;999.90;;;;;;;2.45;79.91;99965.41;15577334;28;20537;-67
